createdAt,value
2022-09-01T00:00:18.111Z,89.98
2022-09-01T00:01:18.128Z,90.59
2022-09-01T00:02:18.160Z,89.17
2022-09-01T00:03:18.119Z,89.72
2022-09-01T00:04:18.128Z,89.31
2022-09-01T00:05:18.065Z,88.87
2022-09-01T00:06:18.060Z,88.87
2022-09-01T00:07:18.038Z,88.97
2022-09-01T00:08:18.230Z,89.17
2022-09-01T00:09:18.025Z,89.17
2022-09-01T00:10:18.022Z,89.31
2022-09-01T00:11:18.001Z,90.03
2022-09-01T00:12:17.972Z,89.72
2022-09-01T00:13:18.004Z,90.23
2022-09-01T00:14:30.598Z,90.74
2022-09-01T00:15:18.944Z,90.64
2022-09-01T00:16:17.962Z,90.44
2022-09-01T00:17:17.919Z,90.44
2022-09-01T00:18:18.087Z,90.53
2022-09-01T00:19:17.915Z,91.05
2022-09-01T00:20:20.433Z,91.49
2022-09-01T00:21:17.880Z,91.09
2022-09-01T00:22:17.875Z,91.90
2022-09-01T00:23:17.905Z,91.90
2022-09-01T00:24:17.855Z,92.10
2022-09-01T00:25:17.859Z,92.21
2022-09-01T00:26:17.822Z,92.10
2022-09-01T00:27:17.821Z,92.82
2022-09-01T00:28:17.906Z,92.45
2022-09-01T00:29:17.805Z,93.47
2022-09-01T00:30:17.779Z,93.67
2022-09-01T00:31:17.838Z,93.57
2022-09-01T00:32:17.769Z,93.57
2022-09-01T00:33:17.784Z,92.96
2022-09-01T00:34:17.731Z,94.18
2022-09-01T00:35:17.720Z,93.37
2022-09-01T00:36:17.712Z,93.06
2022-09-01T00:37:17.699Z,93.37
2022-09-01T00:38:17.789Z,92.86
2022-09-01T00:39:17.693Z,93.37
2022-09-01T00:40:17.718Z,92.30
2022-09-01T00:41:17.662Z,92.71
2022-09-01T00:42:17.664Z,92.10
2022-09-01T00:43:17.678Z,91.90
2022-09-01T00:44:17.636Z,91.90
2022-09-01T00:45:17.623Z,92.10
2022-09-01T00:46:18.382Z,92.21
2022-09-01T00:47:17.587Z,92.00
2022-09-01T00:48:17.599Z,91.80
2022-09-01T00:49:17.558Z,91.60
2022-09-01T00:50:17.556Z,91.69
2022-09-01T00:51:17.555Z,92.10
2022-09-01T00:52:17.537Z,92.41
2022-09-01T00:53:17.555Z,92.96
2022-09-01T00:54:17.515Z,92.96
2022-09-01T00:55:17.530Z,92.76
2022-09-01T00:56:17.495Z,92.45
2022-09-01T00:57:17.485Z,92.65
2022-09-01T00:58:19.478Z,92.76
2022-09-01T00:59:17.463Z,92.76
2022-09-01T01:00:17.453Z,92.45
2022-09-01T01:01:17.470Z,92.45
2022-09-01T01:02:17.461Z,93.26
2022-09-01T01:03:17.439Z,92.96
2022-09-01T01:04:17.398Z,93.26
2022-09-01T01:05:17.411Z,92.55
2022-09-01T01:06:17.375Z,92.45
2022-09-01T01:07:17.383Z,92.04
2022-09-01T01:08:17.405Z,91.84
2022-09-01T01:09:17.366Z,92.10
2022-09-01T01:10:17.356Z,91.84
2022-09-01T01:11:17.325Z,91.69
2022-09-01T01:12:17.316Z,92.30
2022-09-01T01:13:17.340Z,92.04
2022-09-01T01:14:17.297Z,92.65
2022-09-01T01:15:17.286Z,92.65
2022-09-01T01:16:17.301Z,92.35
2022-09-01T01:17:17.261Z,92.45
2022-09-01T01:18:23.025Z,92.45
2022-09-01T01:19:18.241Z,92.55
2022-09-01T01:20:17.213Z,92.86
2022-09-01T01:21:17.213Z,92.65
2022-09-01T01:22:17.187Z,93.06
2022-09-01T01:23:17.177Z,92.65
2022-09-01T01:24:17.200Z,92.96
2022-09-01T01:25:17.178Z,92.55
2022-09-01T01:26:17.160Z,92.86
2022-09-01T01:27:17.137Z,92.86
2022-09-01T01:28:17.177Z,92.10
2022-09-01T01:29:17.170Z,92.30
2022-09-01T01:30:17.109Z,91.80
2022-09-01T01:31:17.138Z,91.80
2022-09-01T01:32:17.097Z,91.90
2022-09-01T01:33:17.124Z,92.00
2022-09-01T01:34:17.073Z,91.80
2022-09-01T01:35:17.070Z,91.60
2022-09-01T01:36:17.027Z,91.90
2022-09-01T01:37:17.038Z,91.90
2022-09-01T01:38:17.064Z,92.30
2022-09-01T01:39:17.026Z,91.80
2022-09-01T01:40:17.053Z,92.30
2022-09-01T01:41:17.005Z,92.10
2022-09-01T01:42:17.004Z,92.71
2022-09-01T01:43:17.006Z,92.21
2022-09-01T01:44:16.964Z,92.00
2022-09-01T01:45:16.961Z,92.61
2022-09-01T01:46:16.958Z,93.06
2022-09-01T01:47:16.924Z,93.67
2022-09-01T01:48:17.004Z,93.26
2022-09-01T01:49:16.901Z,93.77
2022-09-01T01:50:16.905Z,93.67
2022-09-01T01:51:16.882Z,93.47
2022-09-01T01:52:16.853Z,94.08
2022-09-01T01:53:16.882Z,93.87
2022-09-01T01:54:17.837Z,94.38
2022-09-01T01:55:16.842Z,94.69
2022-09-01T01:56:16.808Z,95.20
2022-09-01T01:57:16.796Z,95.40
2022-09-01T01:58:16.825Z,95.40
2022-09-01T01:59:16.772Z,95.30
2022-09-01T02:00:16.766Z,95.70
2022-09-01T02:01:16.836Z,95.81
2022-09-01T02:02:16.827Z,96.11
2022-09-01T02:03:16.784Z,95.70
2022-09-01T02:04:16.736Z,96.01
2022-09-01T02:05:16.721Z,95.50
2022-09-01T02:06:16.710Z,96.11
2022-09-01T02:07:16.720Z,96.92
2022-09-01T02:08:16.746Z,97.33
2022-09-01T02:09:16.678Z,97.38
2022-09-01T02:10:16.664Z,96.97
2022-09-01T02:11:16.668Z,96.46
2022-09-01T02:12:16.629Z,96.26
2022-09-01T02:13:16.668Z,96.46
2022-09-01T02:14:16.612Z,95.75
2022-09-01T02:15:16.614Z,96.42
2022-09-01T02:16:16.636Z,97.44
2022-09-01T02:17:16.579Z,96.97
2022-09-01T02:18:16.838Z,96.87
2022-09-01T02:19:16.565Z,96.87
2022-09-01T02:20:16.559Z,96.67
2022-09-01T02:21:18.545Z,95.70
2022-09-01T02:22:16.507Z,95.40
2022-09-01T02:23:16.566Z,95.30
2022-09-01T02:24:16.487Z,95.50
2022-09-01T02:25:16.495Z,95.00
2022-09-01T02:26:17.748Z,95.40
2022-09-01T02:27:16.474Z,95.09
2022-09-01T02:28:16.544Z,94.69
2022-09-01T02:29:16.481Z,94.28
2022-09-01T02:30:16.451Z,94.18
2022-09-01T02:31:16.460Z,93.67
2022-09-01T02:32:16.413Z,93.87
2022-09-01T02:33:16.445Z,94.28
2022-09-01T02:34:16.369Z,93.98
2022-09-01T02:35:16.373Z,94.38
2022-09-01T02:36:16.357Z,93.98
2022-09-01T02:37:16.355Z,94.48
2022-09-01T02:38:16.458Z,93.57
2022-09-01T02:39:16.329Z,93.67
2022-09-01T02:40:16.426Z,93.57
2022-09-01T02:41:16.323Z,93.98
2022-09-01T02:42:16.303Z,93.57
2022-09-01T02:43:16.320Z,93.57
2022-09-01T02:44:16.279Z,93.87
2022-09-01T02:45:16.281Z,93.98
2022-09-01T02:46:16.345Z,93.87
2022-09-01T02:47:16.249Z,94.48
2022-09-01T02:48:16.349Z,94.79
2022-09-01T02:49:16.206Z,94.89
2022-09-01T02:50:16.206Z,94.79
2022-09-01T02:51:16.192Z,94.43
2022-09-01T02:52:16.201Z,94.53
2022-09-01T02:53:16.212Z,94.53
2022-09-01T02:54:16.173Z,95.14
2022-09-01T02:55:16.157Z,94.53
2022-09-01T02:56:16.158Z,94.32
2022-09-01T02:57:16.126Z,95.00
2022-09-01T02:58:16.208Z,95.09
2022-09-01T02:59:16.110Z,95.40
2022-09-01T03:00:16.100Z,94.79
2022-09-01T03:01:16.155Z,94.59
2022-09-01T03:02:16.077Z,94.59
2022-09-01T03:03:16.086Z,95.30
2022-09-01T03:04:16.060Z,95.04
2022-09-01T03:05:16.040Z,95.34
2022-09-01T03:06:16.033Z,95.54
2022-09-01T03:07:16.011Z,94.93
2022-09-01T03:08:16.091Z,94.53
2022-09-01T03:09:15.984Z,94.63
2022-09-01T03:10:15.975Z,94.23
2022-09-01T03:11:15.960Z,94.23
2022-09-01T03:12:15.947Z,93.87
2022-09-01T03:13:16.000Z,94.08
2022-09-01T03:14:15.936Z,94.38
2022-09-01T03:15:15.970Z,94.08
2022-09-01T03:16:15.952Z,94.48
2022-09-01T03:17:15.908Z,94.59
2022-09-01T03:18:15.960Z,95.00
2022-09-01T03:19:15.889Z,95.20
2022-09-01T03:20:15.874Z,94.63
2022-09-01T03:21:15.846Z,95.04
2022-09-01T03:22:15.853Z,96.15
2022-09-01T03:23:15.834Z,95.45
2022-09-01T03:24:15.854Z,95.34
2022-09-01T03:25:15.804Z,95.34
2022-09-01T03:26:15.822Z,95.34
2022-09-01T03:27:15.783Z,95.34
2022-09-01T03:28:15.869Z,95.14
2022-09-01T03:29:15.799Z,94.84
2022-09-01T03:30:15.777Z,94.73
2022-09-01T03:31:15.817Z,95.14
2022-09-01T03:32:15.787Z,95.14
2022-09-01T03:33:15.735Z,94.73
2022-09-01T03:34:15.761Z,94.93
2022-09-01T03:35:15.723Z,95.34
2022-09-01T03:36:15.705Z,94.84
2022-09-01T03:37:15.669Z,94.73
2022-09-01T03:38:15.679Z,94.93
2022-09-01T03:39:16.869Z,95.14
2022-09-01T03:40:15.726Z,95.45
2022-09-01T03:41:15.627Z,95.45
2022-09-01T03:42:15.634Z,95.24
2022-09-01T03:43:15.603Z,95.85
2022-09-01T03:44:15.641Z,96.06
2022-09-01T03:45:15.579Z,96.51
2022-09-01T03:46:15.624Z,95.69
2022-09-01T03:47:15.552Z,95.79
2022-09-01T03:48:15.545Z,95.59
2022-09-01T03:49:15.846Z,95.59
2022-09-01T03:50:15.538Z,95.45
2022-09-01T03:51:15.535Z,95.75
2022-09-01T03:52:15.514Z,95.85
2022-09-01T03:53:15.492Z,95.65
2022-09-01T03:54:15.539Z,95.65
2022-09-01T03:55:15.473Z,96.26
2022-09-01T03:56:15.472Z,95.59
2022-09-01T03:57:15.452Z,95.90
2022-09-01T03:58:15.457Z,95.79
2022-09-01T03:59:15.476Z,95.79
2022-09-01T04:00:15.417Z,95.69
2022-09-01T04:01:15.439Z,95.90
2022-09-01T04:02:15.490Z,95.49
2022-09-01T04:03:15.391Z,96.30
2022-09-01T04:04:15.423Z,97.22
2022-09-01T04:05:15.371Z,97.93
2022-09-01T04:06:15.367Z,98.24
2022-09-01T04:07:19.047Z,97.22
2022-09-01T04:08:15.333Z,96.81
2022-09-01T04:09:15.355Z,96.81
2022-09-01T04:10:15.329Z,96.81
2022-09-01T04:11:15.294Z,97.02
2022-09-01T04:12:15.307Z,96.81
2022-09-01T04:13:15.280Z,96.81
2022-09-01T04:14:15.318Z,96.51
2022-09-01T04:15:15.255Z,96.51
2022-09-01T04:16:15.349Z,96.71
2022-09-01T04:17:15.223Z,97.12
2022-09-01T04:18:15.221Z,97.32
2022-09-01T04:19:15.281Z,97.02
2022-09-01T04:20:15.203Z,97.22
2022-09-01T04:21:16.186Z,97.12
2022-09-01T04:22:15.170Z,96.92
2022-09-01T04:23:15.148Z,96.71
2022-09-01T04:24:15.139Z,96.61
2022-09-01T04:25:15.171Z,97.12
2022-09-01T04:26:15.143Z,96.61
2022-09-01T04:27:15.128Z,96.41
2022-09-01T04:28:15.113Z,96.51
2022-09-01T04:29:15.095Z,96.71
2022-09-01T04:30:15.112Z,96.92
2022-09-01T04:31:15.148Z,96.30
2022-09-01T04:32:15.079Z,96.81
2022-09-01T04:33:15.061Z,96.71
2022-09-01T04:34:15.051Z,96.20
2022-09-01T04:35:15.085Z,96.41
2022-09-01T04:36:15.026Z,96.97
2022-09-01T04:37:15.154Z,96.87
2022-09-01T04:38:14.996Z,96.77
2022-09-01T04:39:14.993Z,95.85
2022-09-01T04:40:15.099Z,95.95
2022-09-01T04:41:14.981Z,95.65
2022-09-01T04:42:14.955Z,95.34
2022-09-01T04:43:14.918Z,95.85
2022-09-01T04:44:14.932Z,95.85
2022-09-01T04:45:19.954Z,95.54
2022-09-01T04:46:15.945Z,95.45
2022-09-01T04:47:14.886Z,94.93
2022-09-01T04:48:14.902Z,95.14
2022-09-01T04:49:14.895Z,94.43
2022-09-01T04:50:15.174Z,94.59
2022-09-01T04:51:14.865Z,94.69
2022-09-01T04:52:14.866Z,95.00
2022-09-01T04:53:14.832Z,94.28
2022-09-01T04:54:14.838Z,94.79
2022-09-01T04:55:14.841Z,95.40
2022-09-01T04:56:14.806Z,94.59
2022-09-01T04:57:14.764Z,94.59
2022-09-01T04:58:14.758Z,95.09
2022-09-01T04:59:14.745Z,94.28
2022-09-01T05:00:14.779Z,94.64
2022-09-01T05:01:14.762Z,94.04
2022-09-01T05:02:14.821Z,93.93
2022-09-01T05:03:14.723Z,94.13
2022-09-01T05:04:14.735Z,94.24
2022-09-01T05:05:14.738Z,94.34
2022-09-01T05:06:14.681Z,93.73
2022-09-01T05:07:14.674Z,93.07
2022-09-01T05:08:14.681Z,92.87
2022-09-01T05:09:15.644Z,92.16
2022-09-01T05:10:14.640Z,92.02
2022-09-01T05:11:14.632Z,92.32
2022-09-01T05:12:15.784Z,91.41
2022-09-01T05:13:14.596Z,91.20
2022-09-01T05:14:14.604Z,91.20
2022-09-01T05:15:14.626Z,91.61
2022-09-01T05:16:14.620Z,91.10
2022-09-01T05:17:14.561Z,91.16
2022-09-01T05:18:14.571Z,91.26
2022-09-01T05:19:14.543Z,89.90
2022-09-01T05:20:14.560Z,88.89
2022-09-01T05:21:14.518Z,88.28
2022-09-01T05:22:14.500Z,89.09
2022-09-01T05:23:14.502Z,88.89
2022-09-01T05:24:14.460Z,89.19
2022-09-01T05:25:14.480Z,88.38
2022-09-01T05:26:14.471Z,89.09
2022-09-01T05:27:14.444Z,90.20
2022-09-01T05:28:14.429Z,90.61
2022-09-01T05:29:14.422Z,90.00
2022-09-01T05:30:14.445Z,90.61
2022-09-01T05:31:14.417Z,90.00
2022-09-01T05:32:14.405Z,91.02
2022-09-01T05:33:16.748Z,90.41
2022-09-01T05:34:14.361Z,90.31
2022-09-01T05:35:14.346Z,89.43
2022-09-01T05:36:14.384Z,89.84
2022-09-01T05:37:14.342Z,90.25
2022-09-01T05:38:14.332Z,90.92
2022-09-01T05:39:14.314Z,91.12
2022-09-01T05:40:14.331Z,90.92
2022-09-01T05:41:14.321Z,90.31
2022-09-01T05:42:14.292Z,90.00
2022-09-01T05:43:14.264Z,89.09
2022-09-01T05:44:14.257Z,88.89
2022-09-01T05:45:14.293Z,88.68
2022-09-01T05:46:14.263Z,87.87
2022-09-01T05:47:14.856Z,87.57
2022-09-01T05:48:15.211Z,88.07
2022-09-01T05:49:14.183Z,88.64
2022-09-01T05:50:14.798Z,87.83
2022-09-01T05:51:33.414Z,87.22
2022-09-01T05:52:15.163Z,87.52
2022-09-01T05:53:14.157Z,86.88
2022-09-01T05:54:14.133Z,86.88
2022-09-01T05:55:14.157Z,87.28
2022-09-01T05:56:14.115Z,85.56
2022-09-01T05:57:33.382Z,85.70
2022-09-01T05:58:15.099Z,85.90
2022-09-01T05:59:29.493Z,85.80
2022-09-01T06:00:15.117Z,87.28
2022-09-01T06:01:14.040Z,86.57
2022-09-01T06:02:14.180Z,85.80
2022-09-01T06:03:14.165Z,86.37
2022-09-01T06:04:14.032Z,86.43
2022-09-01T06:05:14.078Z,84.91
2022-09-01T06:06:14.004Z,85.01
2022-09-01T06:07:16.290Z,84.67
2022-09-01T06:08:13.977Z,84.47
2022-09-01T06:09:13.948Z,84.36
2022-09-01T06:10:13.933Z,85.03
2022-09-01T06:11:13.956Z,83.78
2022-09-01T06:12:13.935Z,82.93
2022-09-01T06:13:13.913Z,82.73
2022-09-01T06:14:13.921Z,82.42
2022-09-01T06:15:13.891Z,81.82
2022-09-01T06:16:13.982Z,81.34
2022-09-01T06:17:13.871Z,80.63
2022-09-01T06:18:13.887Z,79.79
2022-09-01T06:19:13.835Z,79.41
2022-09-01T06:20:13.840Z,79.72
2022-09-01T06:21:13.848Z,80.63
2022-09-01T06:22:13.855Z,80.46
2022-09-01T06:23:13.828Z,80.26
2022-09-01T06:24:13.805Z,81.34
2022-09-01T06:25:13.783Z,80.08
2022-09-01T06:26:13.814Z,79.24
2022-09-01T06:27:13.746Z,77.93
2022-09-01T06:28:13.760Z,78.23
2022-09-01T06:29:13.743Z,77.28
2022-09-01T06:30:13.741Z,76.07
2022-09-01T06:31:13.781Z,75.94
2022-09-01T06:32:13.719Z,76.10
2022-09-01T06:33:13.682Z,75.23
2022-09-01T06:34:13.676Z,76.71
2022-09-01T06:35:13.662Z,76.74
2022-09-01T06:36:13.717Z,73.75
2022-09-01T06:37:13.654Z,73.95
2022-09-01T06:38:13.623Z,73.95
2022-09-01T06:39:13.627Z,74.26
2022-09-01T06:40:13.656Z,73.32
2022-09-01T06:41:13.645Z,73.95
2022-09-01T06:42:13.589Z,73.75
2022-09-01T06:43:13.567Z,74.02
2022-09-01T06:44:14.661Z,72.57
2022-09-01T06:45:13.552Z,72.44
2022-09-01T06:46:13.621Z,72.03
2022-09-01T06:47:13.526Z,73.88
2022-09-01T06:48:13.549Z,72.54
2022-09-01T06:49:13.506Z,72.54
2022-09-01T06:50:13.643Z,72.03
2022-09-01T06:51:17.447Z,71.13
2022-09-01T06:52:14.480Z,70.83
2022-09-01T06:54:14.671Z,70.83
2022-09-01T06:55:13.462Z,70.63
2022-09-01T06:56:13.469Z,72.64
2022-09-01T06:58:14.411Z,70.63
2022-09-01T06:59:13.503Z,70.83
2022-09-01T07:00:13.428Z,71.43
2022-09-01T07:01:14.256Z,72.50
2022-09-01T07:02:17.309Z,70.26
2022-09-01T07:03:13.393Z,69.96
2022-09-01T07:04:13.504Z,70.56
2022-09-01T07:05:59.707Z,69.25
2022-09-01T07:06:59.079Z,71.47
2022-09-01T07:08:14.289Z,69.62
2022-09-01T07:09:21.553Z,69.02
2022-09-01T07:10:23.056Z,68.32
2022-09-01T07:12:07.558Z,70.23
2022-09-01T07:12:29.700Z,69.22
2022-09-01T07:13:14.243Z,68.65
2022-09-01T07:14:16.307Z,69.56
2022-09-01T07:16:32.466Z,70.59
2022-09-01T07:17:29.446Z,68.18
2022-09-01T07:18:14.183Z,67.98
2022-09-01T07:19:13.175Z,68.38
2022-09-01T07:20:28.479Z,67.98
2022-09-01T07:23:14.104Z,66.75
2022-09-01T07:24:13.124Z,67.78
2022-09-01T07:25:13.536Z,68.08
2022-09-01T07:26:24.637Z,68.29
2022-09-01T07:27:14.075Z,69.73
2022-09-01T07:28:15.663Z,67.38
2022-09-01T07:29:13.050Z,67.08
2022-09-01T07:30:13.088Z,68.12
2022-09-01T07:35:14.015Z,63.82
2022-09-01T07:36:29.471Z,64.00
2022-09-01T07:42:56.480Z,67.65
2022-09-01T07:43:13.917Z,63.66
2022-09-01T07:44:12.880Z,61.24
2022-09-01T07:45:28.840Z,61.04
2022-09-01T07:47:52.297Z,62.66
2022-09-01T07:48:35.440Z,62.39
2022-09-01T07:49:30.306Z,61.16
2022-09-01T07:50:37.550Z,62.70
2022-09-01T07:52:13.805Z,61.63
2022-09-01T07:53:12.916Z,61.71
2022-09-01T07:54:12.771Z,61.30
2022-09-01T07:55:12.763Z,60.88
2022-09-01T07:56:12.769Z,58.95
2022-09-01T07:57:12.731Z,58.55
2022-09-01T07:58:12.720Z,59.62
2022-09-01T07:59:15.191Z,59.00
2022-09-01T08:00:12.725Z,57.60
2022-09-01T08:01:12.737Z,58.65
2022-09-01T08:02:12.810Z,58.98
2022-09-01T08:03:12.820Z,60.61
2022-09-01T08:04:12.687Z,61.10
2022-09-01T08:05:12.670Z,59.68
2022-09-01T08:06:12.666Z,61.94
2022-09-01T08:07:16.111Z,58.12
2022-09-01T08:08:21.061Z,58.42
2022-09-01T08:09:27.336Z,59.32
2022-09-01T08:10:20.186Z,57.40
2022-09-01T08:11:13.621Z,59.02
2022-09-01T08:12:12.602Z,60.26
2022-09-01T08:13:15.358Z,55.28
2022-09-01T08:14:12.567Z,61.69
2022-09-01T08:15:13.027Z,57.02
2022-09-01T08:16:19.738Z,55.55
2022-09-01T08:17:17.739Z,58.39
2022-09-01T08:18:14.841Z,56.20
2022-09-01T08:19:19.633Z,56.30
2022-09-01T08:20:14.132Z,54.73
2022-09-01T08:21:12.523Z,57.32
2022-09-01T08:22:12.445Z,56.92
2022-09-01T08:23:12.458Z,57.15
2022-09-01T08:24:12.455Z,55.78
2022-09-01T08:25:12.453Z,56.38
2022-09-01T08:26:12.447Z,57.94
2022-09-01T08:27:12.442Z,56.35
2022-09-01T08:28:12.499Z,56.12
2022-09-01T08:29:12.410Z,56.45
2022-09-01T08:30:12.368Z,57.29
2022-09-01T08:31:12.451Z,55.95
2022-09-01T08:32:12.342Z,57.89
2022-09-01T08:33:12.340Z,55.30
2022-09-01T08:34:12.333Z,54.33
2022-09-01T08:35:12.337Z,54.60
2022-09-01T08:36:12.376Z,55.90
2022-09-01T08:37:12.309Z,55.33
2022-09-01T08:38:12.322Z,56.20
2022-09-01T08:39:12.287Z,57.49
2022-09-01T08:40:12.363Z,54.88
2022-09-01T08:41:12.294Z,54.28
2022-09-01T08:42:12.267Z,54.75
2022-09-01T08:43:15.436Z,55.42
2022-09-01T08:44:12.224Z,55.96
2022-09-01T08:45:12.228Z,53.38
2022-09-01T08:46:12.289Z,53.31
2022-09-01T08:47:13.653Z,53.26
2022-09-01T08:49:29.216Z,54.60
2022-09-01T08:50:13.169Z,54.78
2022-09-01T08:51:17.039Z,55.67
2022-09-01T08:52:13.138Z,52.99
2022-09-01T08:53:12.144Z,52.96
2022-09-01T08:54:12.123Z,54.85
2022-09-01T08:55:12.216Z,55.47
2022-09-01T08:56:12.135Z,52.56
2022-09-01T08:57:12.076Z,53.76
2022-09-01T08:58:12.075Z,52.76
2022-09-01T08:59:12.099Z,54.78
2022-09-01T09:00:12.713Z,54.68
2022-09-01T09:01:12.140Z,53.49
2022-09-01T09:02:12.161Z,53.56
2022-09-01T09:03:12.168Z,52.24
2022-09-01T09:04:12.019Z,52.22
2022-09-01T09:05:19.059Z,51.28
2022-09-01T09:06:13.025Z,53.36
2022-09-01T09:07:13.543Z,53.61
2022-09-01T09:08:11.956Z,50.70
2022-09-01T09:09:11.953Z,50.21
2022-09-01T09:10:12.111Z,53.75
2022-09-01T09:11:12.964Z,50.65
2022-09-01T09:12:12.345Z,52.34
2022-09-01T09:13:11.929Z,49.79
2022-09-01T09:14:11.900Z,49.76
2022-09-01T09:15:11.907Z,49.81
2022-09-01T09:16:11.977Z,52.42
2022-09-01T09:17:11.874Z,51.92
2022-09-01T09:18:27.105Z,51.30
2022-09-01T09:19:12.845Z,55.15
2022-09-01T09:20:11.845Z,52.07
2022-09-01T09:21:12.076Z,50.93
2022-09-01T09:22:11.829Z,49.69
2022-09-01T09:23:11.799Z,51.75
2022-09-01T09:24:11.779Z,54.38
2022-09-01T09:25:11.779Z,55.15
2022-09-01T09:26:16.663Z,52.94
2022-09-01T09:27:13.050Z,53.63
2022-09-01T09:28:11.770Z,51.57
2022-09-01T09:29:11.748Z,49.88
2022-09-01T09:30:12.021Z,51.18
2022-09-01T09:31:11.782Z,50.70
2022-09-01T09:32:44.359Z,51.62
2022-09-01T09:33:49.869Z,52.31
2022-09-01T09:34:13.181Z,53.58
2022-09-01T09:35:11.704Z,50.68
2022-09-01T09:36:11.713Z,49.91
2022-09-01T09:37:11.676Z,49.84
2022-09-01T09:38:11.652Z,49.42
2022-09-01T09:39:11.648Z,49.57
2022-09-01T09:40:11.632Z,49.52
2022-09-01T09:41:17.797Z,51.77
2022-09-01T09:42:13.218Z,49.02
2022-09-01T09:43:11.573Z,47.69
2022-09-01T09:44:11.635Z,47.28
2022-09-01T09:45:11.591Z,45.84
2022-09-01T09:46:23.422Z,48.55
2022-09-01T09:47:33.460Z,47.00
2022-09-01T09:48:12.531Z,47.49
2022-09-01T09:49:11.530Z,47.25
2022-09-01T09:50:11.526Z,49.49
2022-09-01T09:51:11.563Z,48.34
2022-09-01T09:52:11.493Z,45.23
2022-09-01T09:53:11.505Z,47.62
2022-09-01T09:54:11.508Z,51.45
2022-09-01T09:55:12.180Z,53.17
2022-09-01T09:56:11.464Z,44.84
2022-09-01T09:57:11.508Z,44.51
2022-09-01T09:58:11.446Z,47.78
2022-09-01T09:59:11.420Z,47.89
2022-09-01T10:00:11.433Z,48.63
2022-09-01T10:01:11.457Z,46.70
2022-09-01T10:02:11.424Z,46.74
2022-09-01T10:03:12.565Z,48.25
2022-09-01T10:04:11.490Z,49.87
2022-09-01T10:05:11.360Z,48.33
2022-09-01T10:06:11.331Z,48.21
2022-09-01T10:07:11.387Z,49.22
2022-09-01T10:08:12.361Z,46.06
2022-09-01T10:09:11.334Z,49.32
2022-09-01T10:10:11.347Z,54.79
2022-09-01T10:11:11.349Z,49.74
2022-09-01T10:12:11.300Z,51.52
2022-09-01T10:13:11.274Z,52.44
2022-09-01T10:14:13.774Z,53.61
2022-09-01T10:15:13.956Z,51.75
2022-09-01T10:16:11.416Z,54.06
2022-09-01T10:17:11.323Z,60.46
2022-09-01T10:18:20.736Z,52.67
2022-09-01T10:19:12.749Z,52.17
2022-09-01T10:20:11.380Z,50.36
2022-09-01T10:21:11.232Z,50.70
2022-09-01T10:22:11.171Z,50.38
2022-09-01T10:23:15.426Z,54.86
2022-09-01T10:24:21.174Z,53.76
2022-09-01T10:25:12.147Z,49.46
2022-09-01T10:26:11.188Z,50.90
2022-09-01T10:27:14.325Z,50.01
2022-09-01T10:28:11.111Z,52.64
2022-09-01T10:29:12.094Z,54.36
2022-09-01T10:30:12.603Z,53.39
2022-09-01T10:31:11.186Z,52.07
2022-09-01T10:32:31.443Z,50.53
2022-09-01T10:33:19.921Z,51.70
2022-09-01T10:34:12.041Z,55.44
2022-09-01T10:35:11.056Z,54.50
2022-09-01T10:36:11.055Z,53.89
2022-09-01T10:37:11.738Z,54.86
2022-09-01T10:38:12.168Z,52.89
2022-09-01T10:39:10.984Z,51.37
2022-09-01T10:40:11.071Z,50.93
2022-09-01T10:41:14.685Z,47.59
2022-09-01T10:42:13.141Z,51.42
2022-09-01T10:43:12.477Z,49.27
2022-09-01T10:44:10.937Z,47.41
2022-09-01T10:45:10.934Z,52.54
2022-09-01T10:46:15.604Z,50.65
2022-09-01T10:47:16.419Z,53.64
2022-09-01T10:48:13.272Z,55.04
2022-09-01T10:49:10.880Z,57.18
2022-09-01T10:50:11.239Z,58.54
2022-09-01T10:51:10.859Z,58.86
2022-09-01T10:52:14.099Z,58.56
2022-09-01T10:53:11.465Z,58.89
2022-09-01T10:54:10.847Z,59.89
2022-09-01T10:55:10.798Z,60.29
2022-09-01T10:56:23.395Z,61.89
2022-09-01T10:57:12.245Z,60.79
2022-09-01T10:59:31.216Z,60.29
2022-09-01T11:00:34.897Z,61.12
2022-09-01T11:01:13.339Z,61.62
2022-09-01T11:02:27.954Z,62.15
2022-09-01T11:04:11.770Z,62.98
2022-09-01T11:05:10.776Z,61.78
2022-09-01T11:06:12.890Z,62.38
2022-09-01T11:07:12.032Z,62.19
2022-09-01T11:08:17.742Z,61.69
2022-09-01T11:09:11.650Z,62.19
2022-09-01T11:10:11.856Z,61.99
2022-09-01T11:11:10.641Z,61.59
2022-09-01T11:12:10.652Z,62.19
2022-09-01T11:13:10.605Z,60.57
2022-09-01T11:14:10.619Z,59.97
2022-09-01T11:15:10.585Z,60.96
2022-09-01T11:16:10.621Z,61.07
2022-09-01T11:17:10.658Z,60.16
2022-09-01T11:18:10.577Z,59.36
2022-09-01T11:19:15.602Z,59.28
2022-09-01T11:20:11.535Z,60.33
2022-09-01T11:21:10.525Z,59.86
2022-09-01T11:22:11.383Z,60.19
2022-09-01T11:23:10.537Z,60.82
2022-09-01T11:24:10.491Z,60.92
2022-09-01T11:25:11.032Z,61.92
2022-09-01T11:26:25.750Z,61.15
2022-09-01T11:27:11.506Z,62.15
2022-09-01T11:28:10.438Z,62.05
2022-09-01T11:29:10.476Z,63.42
2022-09-01T11:30:10.441Z,61.40
2022-09-01T11:31:10.424Z,61.19
2022-09-01T11:32:10.476Z,61.02
2022-09-01T11:33:10.412Z,62.82
2022-09-01T11:34:10.418Z,63.02
2022-09-01T11:35:10.396Z,62.72
2022-09-01T11:36:10.399Z,60.82
2022-09-01T11:37:10.393Z,62.42
2022-09-01T11:38:10.339Z,61.92
2022-09-01T11:39:11.046Z,61.35
2022-09-01T11:40:10.431Z,63.35
2022-09-01T11:41:10.316Z,62.05
2022-09-01T11:42:10.330Z,64.36
2022-09-01T11:43:19.935Z,63.15
2022-09-01T11:44:11.317Z,63.02
2022-09-01T11:45:10.260Z,59.55
2022-09-01T11:46:11.512Z,60.95
2022-09-01T11:47:14.168Z,63.02
2022-09-01T11:48:10.246Z,61.42
2022-09-01T11:49:10.241Z,64.12
2022-09-01T11:50:10.215Z,63.79
2022-09-01T11:51:14.766Z,63.19
2022-09-01T11:52:10.205Z,60.10
2022-09-01T11:53:10.215Z,60.57
2022-09-01T11:54:10.172Z,62.19
2022-09-01T11:55:10.172Z,60.02
2022-09-01T11:56:10.164Z,61.45
2022-09-01T11:57:10.148Z,63.42
2022-09-01T11:58:13.425Z,64.00
2022-09-01T11:59:11.113Z,62.29
2022-09-01T12:00:10.094Z,61.29
2022-09-01T12:01:10.068Z,61.40
2022-09-01T12:02:10.180Z,60.69
2022-09-01T12:03:10.170Z,60.49
2022-09-01T12:04:10.076Z,59.49
2022-09-01T12:05:10.045Z,58.99
2022-09-01T12:06:10.031Z,61.89
2022-09-01T12:07:10.950Z,62.86
2022-09-01T12:08:10.048Z,61.46
2022-09-01T12:09:10.013Z,58.97
2022-09-01T12:10:09.991Z,59.56
2022-09-01T12:11:09.994Z,59.47
2022-09-01T12:12:09.976Z,59.27
2022-09-01T12:13:09.997Z,58.29
2022-09-01T12:14:11.538Z,58.29
2022-09-01T12:15:09.931Z,58.09
2022-09-01T12:16:18.693Z,59.49
2022-09-01T12:17:11.008Z,60.57
2022-09-01T12:18:09.932Z,61.98
2022-09-01T12:19:09.898Z,56.03
2022-09-01T12:20:09.899Z,53.78
2022-09-01T12:21:09.876Z,52.07
2022-09-01T12:22:09.865Z,51.30
2022-09-01T12:23:09.890Z,48.60
2022-09-01T12:24:09.858Z,46.55
2022-09-01T12:25:09.834Z,46.57
2022-09-01T12:26:09.820Z,49.37
2022-09-01T12:27:09.834Z,50.19
2022-09-01T12:28:11.144Z,48.56
2022-09-01T12:29:09.793Z,45.23
2022-09-01T12:30:09.766Z,42.91
2022-09-01T12:31:09.779Z,42.52
2022-09-01T12:32:09.810Z,43.11
2022-09-01T12:33:25.221Z,44.49
2022-09-01T12:34:10.737Z,43.45
2022-09-01T12:35:11.682Z,42.19
2022-09-01T12:36:09.714Z,43.23
2022-09-01T12:37:09.675Z,42.68
2022-09-01T12:38:09.762Z,41.57
2022-09-01T12:39:09.862Z,41.27
2022-09-01T12:40:09.692Z,42.83
2022-09-01T12:41:09.675Z,41.91
2022-09-01T12:42:09.655Z,46.48
2022-09-01T12:43:09.669Z,46.98
2022-09-01T12:44:09.637Z,49.21
2022-09-01T12:45:09.606Z,52.24
2022-09-01T12:46:09.649Z,52.00
2022-09-01T12:47:09.609Z,54.04
2022-09-01T12:48:09.613Z,54.06
2022-09-01T12:49:09.598Z,56.18
2022-09-01T12:50:09.570Z,56.51
2022-09-01T12:51:09.706Z,56.71
2022-09-01T12:52:09.537Z,58.14
2022-09-01T12:53:09.585Z,56.37
2022-09-01T12:54:09.692Z,56.89
2022-09-01T12:55:09.514Z,57.59
2022-09-01T12:56:09.499Z,61.69
2022-09-01T12:57:09.488Z,59.30
2022-09-01T12:58:09.508Z,58.62
2022-09-01T12:59:14.319Z,57.72
2022-09-01T13:00:10.446Z,58.92
2022-09-01T13:01:16.498Z,57.92
2022-09-01T13:02:10.716Z,58.85
2022-09-01T13:03:09.514Z,58.05
2022-09-01T13:04:09.412Z,58.55
2022-09-01T13:05:09.403Z,58.95
2022-09-01T13:06:09.395Z,59.55
2022-09-01T13:07:09.374Z,59.75
2022-09-01T13:08:09.406Z,58.98
2022-09-01T13:09:10.242Z,59.18
2022-09-01T13:10:09.365Z,59.28
2022-09-01T13:11:11.198Z,60.58
2022-09-01T13:12:09.308Z,59.45